Time;durP1;ratioP1;P1;durP2;ratioP2;P2;SDS_P1;SDS_P2;PMS_P1;PMS_P2;Temp;Humidity;BMP_temperature;BMP_pressure;BME280_temperature;BME280_humidity;BME280_pressure;Samples;Min_cycle;Max_cycle;Signal;HPM_P1;HPM_P2
2022/01/14 00:00:05;;;;;;;30.37;15.40;;;-0.10;99.90;;;;;;5093494;28;20230;-62
2022/01/14 00:02:31;;;;;;;29.80;15.30;;;-0.10;99.90;;;;;;5094423;28;20180;-62
2022/01/14 00:04:56;;;;;;;28.40;15.23;;;-0.10;99.90;;;;;;5094975;28;20191;-62
2022/01/14 00:07:24;;;;;;;29.20;15.87;;;-0.10;99.90;;;;;;5095020;28;20188;-62
2022/01/14 00:09:49;;;;;;;30.47;16.17;;;-0.10;99.90;;;;;;5093851;28;20176;-62
2022/01/14 00:12:19;;;;;;;30.57;16.47;;;-0.10;99.90;;;;;;5094547;28;20180;-62
2022/01/14 00:14:57;;;;;;;30.70;16.00;;;-0.10;99.90;;;;;;5093399;28;20249;-62
2022/01/14 00:17:23;;;;;;;27.70;15.30;;;-0.10;99.90;;;;;;5094698;28;20180;-62
2022/01/14 00:19:49;;;;;;;28.27;15.20;;;-0.20;99.90;;;;;;5094386;28;20223;-62
2022/01/14 00:22:16;;;;;;;29.07;15.03;;;-0.20;99.90;;;;;;5094382;28;20249;-62
2022/01/14 00:35:24;;;;;;;27.57;13.90;;;-0.30;99.90;;;;;;5094106;28;20176;-62
2022/01/14 00:37:50;;;;;;;28.33;14.13;;;-0.30;99.90;;;;;;5094018;28;20204;-62
2022/01/14 00:40:16;;;;;;;25.40;13.03;;;-0.30;99.90;;;;;;5093990;28;20670;-63
2022/01/14 00:42:41;;;;;;;26.03;13.33;;;-0.30;99.90;;;;;;5094202;28;20177;-62
2022/01/14 00:45:07;;;;;;;24.63;13.23;;;-0.30;99.90;;;;;;5094153;28;20188;-62
2022/01/14 00:47:37;;;;;;;22.93;13.23;;;-0.40;99.90;;;;;;5094000;28;20226;-62
2022/01/14 00:50:07;;;;;;;27.20;14.03;;;-0.40;99.90;;;;;;5094076;28;20180;-62
2022/01/14 00:52:33;;;;;;;24.30;13.63;;;-0.40;99.90;;;;;;5093795;28;20172;-62
2022/01/14 00:54:59;;;;;;;28.93;14.20;;;-0.40;99.90;;;;;;5093746;28;20172;-62
2022/01/14 00:59:14;;;;;;;28.67;14.13;;;-0.40;99.90;;;;;;5093743;28;20230;-62
2022/01/14 01:00:10;;;;;;;26.37;13.60;;;-0.40;99.90;;;;;;5093140;28;20243;-62
2022/01/14 01:02:36;;;;;;;24.43;13.60;;;-0.40;99.90;;;;;;5093502;28;20259;-62
2022/01/14 01:05:02;;;;;;;26.27;14.77;;;-0.40;99.90;;;;;;5093792;28;20635;-62
2022/01/14 01:07:27;;;;;;;24.63;13.20;;;-0.40;99.90;;;;;;5093678;28;20176;-62
2022/01/14 01:09:53;;;;;;;28.23;14.03;;;-0.40;99.90;;;;;;5093471;28;20203;-62
2022/01/14 01:12:37;;;;;;;23.37;12.47;;;-0.40;99.90;;;;;;5091823;28;20218;-62
2022/01/14 01:15:09;;;;;;;25.20;13.33;;;-0.40;99.90;;;;;;5093036;28;20643;-62
2022/01/14 01:17:35;;;;;;;20.93;11.60;;;-0.50;99.90;;;;;;5093430;28;20643;-62
2022/01/14 01:20:03;;;;;;;25.03;13.93;;;-0.50;99.90;;;;;;5089727;28;20466;-62
2022/01/14 01:22:29;;;;;;;23.57;12.73;;;-0.50;99.90;;;;;;5077128;28;20212;-62
2022/01/14 01:24:55;;;;;;;23.67;13.10;;;-0.50;99.90;;;;;;5080341;28;20200;-62
2022/01/14 01:27:21;;;;;;;26.30;13.47;;;-0.50;99.90;;;;;;5093020;28;20635;-62
2022/01/14 01:30:10;;;;;;;26.70;13.33;;;-0.50;99.90;;;;;;5092087;28;20723;-62
2022/01/14 01:32:37;;;;;;;25.07;12.90;;;-0.50;99.90;;;;;;5093144;28;20184;-61
2022/01/14 01:35:02;;;;;;;21.43;11.83;;;-0.50;99.90;;;;;;5093142;28;20196;-66
2022/01/14 01:37:28;;;;;;;25.60;12.87;;;-0.60;99.90;;;;;;5093066;28;20593;-62
2022/01/14 01:39:53;;;;;;;25.47;13.03;;;-0.60;99.90;;;;;;5092935;28;20303;-62
2022/01/14 01:42:26;;;;;;;27.43;13.63;;;-0.60;99.90;;;;;;5093149;28;20255;-62
2022/01/14 01:44:52;;;;;;;27.50;14.30;;;-0.60;99.90;;;;;;5092624;28;20635;-62
2022/01/14 01:47:19;;;;;;;25.03;13.77;;;-0.60;99.90;;;;;;5092516;28;20211;-62
2022/01/14 01:49:45;;;;;;;28.00;14.17;;;-0.60;99.90;;;;;;5092559;28;20214;-62
2022/01/14 01:52:10;;;;;;;25.20;14.07;;;-0.60;99.90;;;;;;5090546;28;20219;-62
2022/01/14 01:54:36;;;;;;;27.10;14.23;;;-0.60;99.90;;;;;;5092820;28;20188;-62
2022/01/14 01:57:02;;;;;;;24.70;13.27;;;-0.60;99.90;;;;;;5093127;28;20184;-62
2022/01/14 01:59:28;;;;;;;24.60;13.40;;;-0.60;99.90;;;;;;5092418;28;20327;-62
2022/01/14 02:01:57;;;;;;;28.47;14.17;;;-0.60;99.90;;;;;;5091899;28;20188;-62
2022/01/14 02:04:23;;;;;;;27.73;14.43;;;-0.60;99.90;;;;;;5091124;28;20215;-62
2022/01/14 02:06:51;;;;;;;26.77;13.43;;;-0.60;99.90;;;;;;5088170;28;20223;-62
2022/01/14 02:09:16;;;;;;;25.57;12.80;;;-0.70;99.90;;;;;;5092298;28;20191;-62
2022/01/14 02:11:42;;;;;;;26.03;13.13;;;-0.60;99.90;;;;;;5087011;28;20538;-62
2022/01/14 02:14:28;;;;;;;27.87;12.77;;;-0.70;99.90;;;;;;5090585;28;20198;-62
2022/01/14 02:22:10;;;;;;;22.23;12.40;;;-0.70;99.90;;;;;;5078880;28;20224;-62
2022/01/14 02:22:46;;;;;;;26.57;13.20;;;-0.70;99.90;;;;;;5079657;28;20176;-62
2022/01/14 02:25:14;;;;;;;23.60;13.00;;;-0.70;99.90;;;;;;5076243;28;20180;-62
2022/01/14 02:27:40;;;;;;;26.10;13.20;;;-0.70;99.90;;;;;;5086116;28;20264;-62
2022/01/14 02:30:07;;;;;;;25.67;12.80;;;-0.70;99.90;;;;;;5085510;28;20212;-62
2022/01/14 02:32:33;;;;;;;27.70;13.13;;;-0.70;99.90;;;;;;5091334;28;21034;-62
2022/01/14 02:34:58;;;;;;;26.43;13.73;;;-0.70;99.90;;;;;;5091929;28;20180;-62
2022/01/14 02:37:24;;;;;;;24.37;13.07;;;-0.80;99.90;;;;;;5085420;28;20528;-62
2022/01/14 02:39:50;;;;;;;26.77;13.07;;;-0.80;99.90;;;;;;5080547;28;20214;-62
2022/01/14 02:42:15;;;;;;;27.23;13.23;;;-0.80;99.90;;;;;;5091587;28;20168;-62
2022/01/14 02:44:41;;;;;;;29.90;14.47;;;-0.80;99.90;;;;;;5092077;28;20188;-62
2022/01/14 02:47:07;;;;;;;25.47;13.37;;;-0.80;99.90;;;;;;5091496;28;20172;-62
2022/01/14 02:49:34;;;;;;;24.53;12.60;;;-0.80;99.90;;;;;;5091347;28;20211;-62
2022/01/14 02:52:03;;;;;;;23.33;12.80;;;-0.80;99.90;;;;;;5092034;28;20266;-62
2022/01/14 02:54:40;;;;;;;26.27;12.67;;;-0.80;99.90;;;;;;5091841;28;20184;-62
2022/01/14 02:57:09;;;;;;;27.17;13.87;;;-0.80;99.90;;;;;;5084241;28;20187;-62
2022/01/14 02:59:37;;;;;;;24.20;13.53;;;-0.80;99.90;;;;;;5091501;28;20256;-62
2022/01/14 03:02:06;;;;;;;24.43;12.73;;;-0.80;99.90;;;;;;5091061;28;20190;-63
2022/01/14 03:04:36;;;;;;;24.47;13.53;;;-0.80;99.90;;;;;;5091534;28;20184;-63
2022/01/14 03:07:03;;;;;;;26.87;13.13;;;-0.80;99.90;;;;;;5091562;28;20184;-62
2022/01/14 03:09:28;;;;;;;29.03;13.67;;;-0.80;99.90;;;;;;5091233;28;20188;-63
2022/01/14 03:11:56;;;;;;;28.27;14.23;;;-0.80;99.90;;;;;;5091582;28;20258;-62
2022/01/14 03:14:24;;;;;;;25.60;13.30;;;-0.80;99.90;;;;;;5091723;28;20537;-62
2022/01/14 03:16:54;;;;;;;24.60;13.03;;;-0.80;99.90;;;;;;5091397;28;20188;-63
2022/01/14 03:19:24;;;;;;;26.33;13.37;;;-0.80;99.90;;;;;;5091477;28;20623;-62
2022/01/14 03:21:52;;;;;;;25.07;12.60;;;-0.90;99.90;;;;;;5091757;28;20210;-62
2022/01/14 03:26:45;;;;;;;23.53;12.73;;;-0.90;99.90;;;;;;5095070;28;20180;-63
2022/01/14 03:29:13;;;;;;;25.63;12.90;;;-0.90;99.90;;;;;;5084208;28;20262;-62
2022/01/14 03:31:39;;;;;;;22.93;12.53;;;-0.90;99.90;;;;;;5095363;28;20176;-63
2022/01/14 03:34:05;;;;;;;23.13;12.37;;;-0.90;99.90;;;;;;5095142;28;20224;-62
2022/01/14 03:36:30;;;;;;;25.77;13.33;;;-0.90;99.90;;;;;;5095784;28;20176;-62
2022/01/14 03:38:56;;;;;;;28.03;14.73;;;-0.90;99.90;;;;;;5094968;28;20215;-62
2022/01/14 03:41:22;;;;;;;29.50;14.90;;;-0.90;99.90;;;;;;5094988;28;20179;-62
2022/01/14 03:43:47;;;;;;;29.37;15.53;;;-0.90;99.90;;;;;;5086217;28;20180;-62
2022/01/14 03:46:13;;;;;;;29.97;15.53;;;-0.90;99.90;;;;;;5095040;28;20188;-62
2022/01/14 03:48:39;;;;;;;36.40;17.57;;;-0.90;99.90;;;;;;5094752;28;20180;-62
2022/01/14 03:51:04;;;;;;;39.23;17.40;;;-0.90;99.90;;;;;;5094655;28;20215;-62
2022/01/14 03:53:30;;;;;;;37.97;17.20;;;-1.00;99.90;;;;;;5094353;28;20251;-62
2022/01/14 03:55:56;;;;;;;42.53;20.53;;;-1.00;99.90;;;;;;5094314;28;20184;-62
2022/01/14 03:58:21;;;;;;;72.87;24.57;;;-1.00;99.90;;;;;;5094066;28;20232;-62
2022/01/14 04:00:47;;;;;;;62.23;24.57;;;-1.00;99.90;;;;;;5094822;28;20184;-62
2022/01/14 04:03:13;;;;;;;51.37;21.50;;;-1.10;99.90;;;;;;5094776;28;20267;-62
2022/01/14 04:05:38;;;;;;;34.10;16.63;;;-1.00;99.90;;;;;;5094062;28;20295;-62
2022/01/14 04:08:05;;;;;;;33.50;15.10;;;-1.00;99.90;;;;;;5094594;28;20176;-62
2022/01/14 04:10:31;;;;;;;30.37;15.00;;;-1.00;99.90;;;;;;5093981;28;20188;-62
2022/01/14 04:13:02;;;;;;;30.07;15.47;;;-1.00;99.90;;;;;;5095015;28;20202;-62
2022/01/14 04:15:38;;;;;;;33.93;17.43;;;-1.00;99.90;;;;;;5094861;28;20194;-62
2022/01/14 04:18:13;;;;;;;30.67;16.20;;;-1.00;99.90;;;;;;5092445;28;20200;-62
2022/01/14 04:20:39;;;;;;;56.77;25.33;;;-1.00;99.90;;;;;;5094856;28;20176;-62
2022/01/14 04:23:05;;;;;;;59.17;26.30;;;-1.10;99.90;;;;;;5094225;28;20189;-62
2022/01/14 04:25:35;;;;;;;45.83;22.60;;;-1.10;99.90;;;;;;5094195;28;20180;-62
2022/01/14 04:28:02;;;;;;;38.07;17.17;;;-1.10;99.90;;;;;;5093974;28;20742;-62
2022/01/14 04:30:27;;;;;;;35.67;16.80;;;-1.10;99.90;;;;;;5094058;28;20179;-63
2022/01/14 04:32:53;;;;;;;34.67;16.20;;;-1.10;99.90;;;;;;5094250;28;20535;-62
2022/01/14 04:35:19;;;;;;;37.17;17.37;;;-1.10;99.90;;;;;;5093451;28;20176;-62
2022/01/14 04:37:44;;;;;;;36.67;17.40;;;-1.10;99.90;;;;;;5093837;28;20578;-62
2022/01/14 04:40:12;;;;;;;32.63;16.53;;;-1.10;99.90;;;;;;5094146;28;20208;-61
2022/01/14 04:42:41;;;;;;;34.60;17.10;;;-1.10;99.90;;;;;;5094248;28;20188;-62
2022/01/14 04:45:07;;;;;;;32.67;17.53;;;-1.10;99.90;;;;;;5092749;28;20195;-62
2022/01/14 04:47:44;;;;;;;32.40;16.07;;;-1.10;99.90;;;;;;5092411;28;20542;-62
2022/01/14 04:50:11;;;;;;;30.60;16.10;;;-1.10;99.90;;;;;;5101256;28;20769;-62
2022/01/14 04:52:37;;;;;;;30.00;16.07;;;-1.10;99.90;;;;;;5093768;28;20183;-62
2022/01/14 04:55:03;;;;;;;34.70;16.30;;;-1.20;99.90;;;;;;5094216;28;20180;-61
2022/01/14 04:57:28;;;;;;;35.23;16.93;;;-1.10;99.90;;;;;;5093881;28;20183;-61
2022/01/14 04:59:54;;;;;;;29.33;15.20;;;-1.10;99.90;;;;;;5093792;28;20263;-63
2022/01/14 05:02:19;;;;;;;33.27;15.00;;;-1.10;99.90;;;;;;5093852;28;20643;-61
2022/01/14 05:04:46;;;;;;;28.60;15.03;;;-1.10;99.90;;;;;;5093300;28;20176;-61
2022/01/14 05:07:22;;;;;;;32.60;16.00;;;-1.10;99.90;;;;;;5092784;28;20180;-62
2022/01/14 05:09:57;;;;;;;30.07;15.73;;;-1.20;99.90;;;;;;5093396;28;20191;-68
2022/01/14 05:12:23;;;;;;;30.37;14.37;;;-1.20;99.90;;;;;;5094414;28;20528;-60
2022/01/14 05:14:48;;;;;;;31.57;16.00;;;-1.20;99.90;;;;;;5093459;28;20184;-62
2022/01/14 05:17:14;;;;;;;29.30;14.83;;;-1.20;99.90;;;;;;5093182;28;20266;-61
2022/01/14 05:19:39;;;;;;;32.03;15.13;;;-1.20;99.90;;;;;;5093110;28;20563;-64
2022/01/14 05:22:05;;;;;;;28.60;14.57;;;-1.20;99.90;;;;;;5093012;28;20251;-63
2022/01/14 05:24:30;;;;;;;26.17;14.10;;;-1.20;99.90;;;;;;5092135;28;20176;-62
2022/01/14 05:26:56;;;;;;;26.70;13.80;;;-1.30;99.90;;;;;;5093608;28;20188;-63
2022/01/14 05:29:22;;;;;;;29.93;14.10;;;-1.30;99.90;;;;;;5092990;28;20180;-62
2022/01/14 05:31:51;;;;;;;27.30;14.17;;;-1.30;99.90;;;;;;5092866;28;20624;-64
2022/01/14 05:34:17;;;;;;;27.00;14.30;;;-1.40;99.90;;;;;;5093434;28;20176;-65
2022/01/14 05:36:43;;;;;;;28.40;14.67;;;-1.40;99.90;;;;;;5074534;28;20191;-66
2022/01/14 05:39:09;;;;;;;25.90;14.03;;;-1.40;99.90;;;;;;5093285;28;20220;-65
2022/01/14 05:41:36;;;;;;;28.70;14.27;;;-1.40;99.90;;;;;;5093627;28;20538;-65
2022/01/14 05:44:03;;;;;;;31.37;13.87;;;-1.40;99.90;;;;;;5093373;28;20548;-66
2022/01/14 05:46:28;;;;;;;27.33;13.73;;;-1.40;99.90;;;;;;5093506;28;20624;-65
2022/01/14 05:48:54;;;;;;;28.03;13.50;;;-1.40;99.90;;;;;;5092642;28;20218;-65
2022/01/14 05:51:20;;;;;;;26.30;13.97;;;-1.40;99.90;;;;;;5093245;28;20180;-65
2022/01/14 05:53:45;;;;;;;27.90;14.27;;;-1.40;99.90;;;;;;5093315;28;20188;-66
2022/01/14 05:56:11;;;;;;;26.20;15.13;;;-1.40;99.90;;;;;;5093140;28;20279;-66
2022/01/14 05:58:36;;;;;;;30.37;15.30;;;-1.40;99.90;;;;;;5092997;28;20711;-66
2022/01/14 06:01:02;;;;;;;26.70;14.40;;;-1.40;99.90;;;;;;5093002;28;20210;-66
2022/01/14 06:03:28;;;;;;;28.37;15.17;;;-1.40;99.90;;;;;;5093053;28;20203;-66
2022/01/14 06:05:54;;;;;;;31.63;15.10;;;-1.40;99.90;;;;;;5093325;28;20642;-66
2022/01/14 06:08:19;;;;;;;34.07;15.53;;;-1.40;99.90;;;;;;5093041;28;20180;-65
2022/01/14 06:10:45;;;;;;;30.57;14.90;;;-1.40;99.90;;;;;;5092941;28;20172;-66
2022/01/14 06:13:10;;;;;;;34.33;15.63;;;-1.40;99.90;;;;;;5092793;28;20187;-66
2022/01/14 06:15:36;;;;;;;30.13;15.50;;;-1.40;99.90;;;;;;5092971;28;20179;-65
2022/01/14 06:18:01;;;;;;;30.57;15.10;;;-1.40;99.90;;;;;;5092611;28;20708;-66
2022/01/14 06:20:27;;;;;;;34.90;16.37;;;-1.40;99.90;;;;;;5092693;28;20179;-66
2022/01/14 06:22:53;;;;;;;35.63;15.97;;;-1.40;99.90;;;;;;5092686;28;20172;-66
2022/01/14 06:25:19;;;;;;;47.40;21.07;;;-1.40;99.90;;;;;;5092936;28;20184;-66
2022/01/14 06:27:45;;;;;;;58.70;25.00;;;-1.40;99.90;;;;;;5092704;28;20533;-66
2022/01/14 06:30:11;;;;;;;49.97;22.53;;;-1.40;99.90;;;;;;5091552;28;20168;-66
2022/01/14 06:32:43;;;;;;;49.27;21.10;;;-1.40;99.90;;;;;;5092610;28;20180;-66
2022/01/14 06:35:14;;;;;;;36.47;18.33;;;-1.40;99.90;;;;;;5092476;28;20262;-66
2022/01/14 06:37:40;;;;;;;42.53;19.17;;;-1.40;99.90;;;;;;5092424;28;20195;-65
2022/01/14 06:40:07;;;;;;;55.27;24.23;;;-1.50;99.90;;;;;;5092521;28;20216;-65
2022/01/14 06:42:32;;;;;;;67.97;25.77;;;-1.40;99.90;;;;;;5090963;28;20180;-65
2022/01/14 06:44:58;;;;;;;60.10;25.03;;;-1.40;99.90;;;;;;5092248;28;20524;-65
2022/01/14 06:47:24;;;;;;;45.13;19.70;;;-1.40;99.90;;;;;;5092199;28;20697;-65
2022/01/14 06:49:50;;;;;;;31.50;16.80;;;-1.40;99.90;;;;;;5092416;28;20176;-65
2022/01/14 06:52:16;;;;;;;32.60;16.67;;;-1.30;99.90;;;;;;5092169;28;20182;-65
2022/01/14 06:54:41;;;;;;;29.67;16.30;;;-1.30;99.90;;;;;;5092057;28;20191;-65
2022/01/14 06:57:07;;;;;;;28.40;15.73;;;-1.30;99.90;;;;;;5092100;28;20172;-65
2022/01/14 06:59:33;;;;;;;34.27;16.60;;;-1.30;99.90;;;;;;5091725;28;20238;-65
2022/01/14 07:01:59;;;;;;;37.83;18.27;;;-1.30;99.90;;;;;;5092052;28;20180;-65
2022/01/14 07:04:25;;;;;;;34.53;17.07;;;-1.30;99.90;;;;;;5092307;28;20192;-65
2022/01/14 07:06:51;;;;;;;99.40;26.93;;;-1.30;99.90;;;;;;5092150;28;20248;-65
2022/01/14 07:09:16;;;;;;;100.30;25.90;;;-1.30;99.90;;;;;;5092058;28;20184;-65
2022/01/14 07:11:46;;;;;;;74.97;23.40;;;-1.20;99.90;;;;;;5092117;28;20176;-65
2022/01/14 07:14:12;;;;;;;48.07;18.13;;;-1.20;99.90;;;;;;5092071;28;20279;-65
2022/01/14 07:16:37;;;;;;;36.67;16.73;;;-1.20;99.90;;;;;;5092084;28;20212;-65
2022/01/14 07:19:03;;;;;;;30.73;14.60;;;-1.20;99.90;;;;;;5091798;28;20265;-65
2022/01/14 07:21:29;;;;;;;35.27;16.23;;;-1.10;99.90;;;;;;5091970;28;20694;-65
2022/01/14 07:23:54;;;;;;;31.83;15.70;;;-1.10;99.90;;;;;;5092037;28;20276;-65
2022/01/14 07:26:21;;;;;;;29.90;13.77;;;-1.10;99.90;;;;;;5092241;28;20191;-65
2022/01/14 07:28:46;;;;;;;27.87;14.20;;;-1.10;99.90;;;;;;5091999;28;20172;-65
2022/01/14 07:31:12;;;;;;;28.43;14.30;;;-1.10;99.90;;;;;;5091800;28;20743;-65
2022/01/14 07:33:38;;;;;;;29.50;15.40;;;-1.20;99.90;;;;;;5092003;28;20177;-65
2022/01/14 07:36:03;;;;;;;34.10;15.43;;;-1.20;99.90;;;;;;5091744;28;20255;-65
2022/01/14 07:38:29;;;;;;;34.87;16.63;;;-1.30;99.90;;;;;;5091933;28;20245;-65
2022/01/14 07:40:54;;;;;;;42.47;18.77;;;-1.40;99.90;;;;;;5091839;28;20172;-64
2022/01/14 07:43:21;;;;;;;43.13;18.53;;;-1.40;99.90;;;;;;5091728;28;20237;-65
2022/01/14 07:45:47;;;;;;;46.23;18.40;;;-1.40;99.90;;;;;;5091965;28;20206;-65
2022/01/14 07:48:13;;;;;;;45.30;19.50;;;-1.50;99.90;;;;;;5091989;28;20173;-65
2022/01/14 07:50:38;;;;;;;39.40;18.50;;;-1.50;99.90;;;;;;5091912;28;20696;-65
2022/01/14 07:53:04;;;;;;;41.83;19.80;;;-1.50;99.90;;;;;;5091593;28;20173;-65
2022/01/14 07:55:30;;;;;;;47.80;18.73;;;-1.50;99.90;;;;;;5091775;28;20172;-65
2022/01/14 07:57:56;;;;;;;44.67;19.17;;;-1.50;99.90;;;;;;5090189;28;20517;-65
2022/01/14 08:00:22;;;;;;;34.07;16.87;;;-1.50;99.90;;;;;;5091403;28;20191;-65
2022/01/14 08:02:47;;;;;;;38.10;18.20;;;-1.60;99.90;;;;;;5091664;28;20176;-65
2022/01/14 08:05:15;;;;;;;53.13;21.37;;;-1.60;99.90;;;;;;5091502;28;20172;-65
2022/01/14 08:07:46;;;;;;;54.33;22.80;;;-1.50;99.90;;;;;;5091536;28;20271;-66
2022/01/14 08:10:13;;;;;;;46.30;19.93;;;-1.40;99.90;;;;;;5092198;28;20213;-66
2022/01/14 08:12:38;;;;;;;49.20;21.20;;;-1.30;99.90;;;;;;5095432;28;20173;-66
2022/01/14 08:15:05;;;;;;;44.37;23.93;;;-1.30;99.90;;;;;;5095173;28;20176;-66
2022/01/14 08:17:31;;;;;;;34.27;16.93;;;-1.20;99.90;;;;;;5095372;28;20180;-66
2022/01/14 08:19:57;;;;;;;32.17;16.00;;;-1.20;99.90;;;;;;5095023;28;20220;-66
2022/01/14 08:22:22;;;;;;;37.57;17.07;;;-1.20;99.90;;;;;;5094996;28;20302;-66
2022/01/14 08:24:48;;;;;;;35.10;15.43;;;-1.10;99.90;;;;;;5095079;28;20176;-66
2022/01/14 08:27:13;;;;;;;33.17;15.07;;;-1.00;99.90;;;;;;5094909;28;20176;-65
2022/01/14 08:29:39;;;;;;;39.30;16.17;;;-0.90;99.90;;;;;;5095003;28;20182;-66
2022/01/14 08:32:05;;;;;;;42.33;16.33;;;-0.80;99.90;;;;;;5094746;28;20681;-66
2022/01/14 08:34:31;;;;;;;43.33;17.43;;;-0.70;99.90;;;;;;5094864;28;20186;-65
2022/01/14 08:36:56;;;;;;;45.03;17.40;;;-0.70;99.90;;;;;;5094822;28;20213;-66
2022/01/14 08:39:22;;;;;;;42.63;17.63;;;-0.60;99.90;;;;;;5094717;28;20671;-66
2022/01/14 08:41:48;;;;;;;40.87;16.90;;;-0.60;99.90;;;;;;5094660;28;20164;-66
2022/01/14 08:44:14;;;;;;;40.13;16.93;;;-0.50;99.90;;;;;;5094553;28;20264;-66
2022/01/14 08:46:41;;;;;;;38.43;16.53;;;-0.50;99.90;;;;;;5094694;28;20902;-66
2022/01/14 08:49:08;;;;;;;41.07;16.57;;;-0.50;99.90;;;;;;5094495;28;20188;-66
2022/01/14 08:51:36;;;;;;;38.57;17.10;;;-0.40;99.90;;;;;;5094528;28;20176;-65
2022/01/14 08:54:02;;;;;;;35.63;16.80;;;-0.40;99.90;;;;;;5094405;28;20251;-65
2022/01/14 08:56:31;;;;;;;44.37;18.07;;;-0.30;99.90;;;;;;5094447;28;20662;-65
2022/01/14 08:58:57;;;;;;;33.53;15.90;;;-0.30;99.90;;;;;;5094474;28;20341;-66
2022/01/14 09:01:24;;;;;;;32.93;15.70;;;-0.30;99.90;;;;;;5094328;28;20176;-66
2022/01/14 09:03:49;;;;;;;30.10;16.53;;;-0.20;99.90;;;;;;5094437;28;20271;-65
2022/01/14 09:06:15;;;;;;;29.57;15.33;;;-0.20;99.90;;;;;;5092955;28;20318;-65
2022/01/14 09:08:40;;;;;;;37.13;15.67;;;-0.20;99.90;;;;;;5094067;28;20191;-65
2022/01/14 09:11:07;;;;;;;36.33;17.40;;;-0.20;99.90;;;;;;5094092;28;20176;-65
2022/01/14 09:13:34;;;;;;;34.40;16.57;;;-0.10;99.90;;;;;;5094097;28;20659;-65
2022/01/14 09:16:00;;;;;;;31.70;15.37;;;-0.10;99.90;;;;;;5094306;28;20234;-65
2022/01/14 09:18:26;;;;;;;38.67;16.03;;;-0.10;99.90;;;;;;5093975;28;20215;-65
2022/01/14 09:20:52;;;;;;;36.50;17.03;;;0.00;99.90;;;;;;5093820;28;20277;-66
2022/01/14 09:23:24;;;;;;;34.10;15.90;;;0.10;99.90;;;;;;5093708;28;20185;-65
2022/01/14 09:25:50;;;;;;;31.63;15.90;;;0.20;99.90;;;;;;5093946;28;20237;-66
2022/01/14 09:28:16;;;;;;;31.03;15.40;;;0.20;99.90;;;;;;5093686;28;20701;-65
2022/01/14 09:30:42;;;;;;;28.90;15.07;;;0.20;99.90;;;;;;5093723;28;20184;-66
2022/01/14 09:33:07;;;;;;;33.23;16.13;;;0.20;99.90;;;;;;5093805;28;20184;-65
2022/01/14 09:35:34;;;;;;;36.60;16.23;;;0.20;99.90;;;;;;5093661;28;20176;-65
2022/01/14 09:38:00;;;;;;;34.67;16.57;;;0.30;99.90;;;;;;5093582;28;20198;-65
2022/01/14 09:40:27;;;;;;;37.70;17.77;;;0.40;99.90;;;;;;5092332;28;20639;-65
2022/01/14 09:43:00;;;;;;;36.63;17.10;;;0.40;99.90;;;;;;5093515;28;20267;-65
2022/01/14 09:45:26;;;;;;;51.90;21.63;;;0.40;99.90;;;;;;5093563;28;20202;-66
2022/01/14 09:47:51;;;;;;;42.87;18.10;;;0.40;99.90;;;;;;5093542;28;20722;-65
2022/01/14 09:50:22;;;;;;;34.53;17.33;;;0.50;99.90;;;;;;5093209;28;20347;-65
2022/01/14 09:52:51;;;;;;;36.30;18.30;;;0.50;99.90;;;;;;5093314;28;20712;-65
2022/01/14 09:55:18;;;;;;;35.90;16.50;;;0.60;99.90;;;;;;5093161;28;20184;-65
2022/01/14 09:57:44;;;;;;;38.13;17.10;;;0.50;99.90;;;;;;5093104;28;20599;-65
2022/01/14 10:00:10;;;;;;;36.87;17.40;;;0.60;99.90;;;;;;5092852;28;20706;-65
2022/01/14 10:02:38;;;;;;;47.77;18.70;;;0.60;99.90;;;;;;5093102;28;20176;-65
2022/01/14 10:05:06;;;;;;;42.33;17.63;;;0.60;99.90;;;;;;5093042;28;20188;-65
2022/01/14 10:07:33;;;;;;;37.85;16.90;;;0.60;99.90;;;;;;5093173;28;20180;-65
2022/01/14 10:10:00;;;;;;;34.00;15.77;;;0.70;99.90;;;;;;5093110;28;20168;-65
2022/01/14 10:12:31;;;;;;;33.63;14.97;;;0.70;99.90;;;;;;5093006;28;20168;-65
2022/01/14 10:15:06;;;;;;;33.87;16.50;;;0.80;99.90;;;;;;5092875;28;20627;-65
2022/01/14 10:17:43;;;;;;;38.70;16.43;;;0.80;99.90;;;;;;5093066;28;20187;-65
2022/01/14 10:20:11;;;;;;;36.87;17.33;;;0.90;99.90;;;;;;5092586;28;20690;-65
2022/01/14 10:22:45;;;;;;;33.20;17.33;;;0.90;99.90;;;;;;5092856;28;20579;-64
2022/01/14 10:25:14;;;;;;;37.30;17.33;;;0.90;99.90;;;;;;5092761;28;20174;-64
2022/01/14 10:27:44;;;;;;;36.77;16.93;;;0.90;99.90;;;;;;5092777;28;20178;-65
2022/01/14 10:30:14;;;;;;;36.13;18.20;;;0.90;99.90;;;;;;5092661;28;20246;-65
2022/01/14 10:32:41;;;;;;;37.80;17.37;;;0.90;99.90;;;;;;5092646;28;20168;-65
2022/01/14 10:35:10;;;;;;;36.93;17.90;;;1.00;99.90;;;;;;5092083;28;20497;-64
2022/01/14 10:37:36;;;;;;;37.67;18.20;;;0.90;99.90;;;;;;5092682;28;20581;-65
2022/01/14 10:40:13;;;;;;;40.33;18.30;;;0.90;99.90;;;;;;5092275;28;20257;-64
2022/01/14 10:42:40;;;;;;;33.80;16.53;;;0.90;99.90;;;;;;5092958;28;20176;-64
2022/01/14 10:45:19;;;;;;;35.77;16.97;;;1.00;99.90;;;;;;5092290;28;20536;-64
2022/01/14 10:48:01;;;;;;;99.18;45.95;;;1.00;99.90;;;;;;5092342;28;20168;-65
2022/01/14 10:50:38;;;;;;;36.10;18.97;;;1.20;99.90;;;;;;5092668;28;20184;-64
2022/01/14 10:53:16;;;;;;;35.97;16.33;;;1.20;99.90;;;;;;5092260;28;20175;-64
2022/01/14 10:55:59;;;;;;;33.07;16.47;;;1.30;99.90;;;;;;5092348;28;20176;-64
2022/01/14 10:58:27;;;;;;;31.50;16.57;;;1.40;99.90;;;;;;5091929;28;20231;-64
2022/01/14 11:00:59;;;;;;;29.95;15.88;;;1.50;99.90;;;;;;5092235;28;20180;-64
2022/01/14 11:03:40;;;;;;;24.02;14.15;;;1.60;99.90;;;;;;5090939;28;20650;-64
2022/01/14 11:06:21;;;;;;;27.50;13.87;;;1.80;99.90;;;;;;5092310;28;20180;-64
2022/01/14 11:08:53;;;;;;;29.10;14.67;;;1.80;99.90;;;;;;5090918;28;20221;-64
2022/01/14 11:11:19;;;;;;;25.17;13.87;;;1.80;99.90;;;;;;5092290;28;20180;-64
2022/01/14 11:13:45;;;;;;;23.70;14.40;;;1.80;99.90;;;;;;5092140;28;20243;-64
2022/01/14 11:16:10;;;;;;;27.13;14.07;;;1.90;99.90;;;;;;5092141;28;20176;-64
2022/01/14 11:18:37;;;;;;;56.07;28.23;;;1.90;99.90;;;;;;5092054;28;20212;-64
2022/01/14 11:23:48;;;;;;;25.63;14.77;;;1.90;99.90;;;;;;5092288;28;20187;-65
2022/01/14 11:26:17;;;;;;;42.92;23.92;;;2.10;99.90;;;;;;5091924;28;20546;-64
2022/01/14 11:28:44;;;;;;;67.53;39.67;;;2.30;99.90;;;;;;5091906;28;20544;-64
2022/01/14 11:31:31;;;;;;;31.80;18.35;;;2.40;99.90;;;;;;5091980;28;20180;-64
2022/01/14 11:33:59;;;;;;;28.58;15.90;;;2.60;99.90;;;;;;5091731;28;20275;-64
2022/01/14 11:36:45;;;;;;;35.53;18.65;;;2.80;99.90;;;;;;5091859;28;20180;-64
2022/01/14 11:39:22;;;;;;;33.63;18.35;;;3.00;99.90;;;;;;5091714;28;20227;-64
2022/01/14 11:41:59;;;;;;;34.88;18.85;;;3.30;99.90;;;;;;5090739;28;20184;-65
2022/01/14 11:44:44;;;;;;;37.65;18.33;;;3.50;99.90;;;;;;5091827;28;20180;-64
2022/01/14 11:47:31;;;;;;;33.00;15.37;;;3.50;99.90;;;;;;5094938;28;20656;-65
2022/01/14 11:49:59;;;;;;;31.63;15.93;;;3.30;99.90;;;;;;5095751;28;20238;-65
2022/01/14 11:52:40;;;;;;;26.80;14.50;;;3.10;99.90;;;;;;5094583;28;20669;-65
2022/01/14 11:55:19;;;;;;;28.58;15.57;;;2.90;99.90;;;;;;5095429;28;20184;-65
2022/01/14 11:57:49;;;;;;;29.10;13.80;;;2.80;99.90;;;;;;5095572;28;20253;-65
2022/01/14 12:00:30;;;;;;;25.75;14.05;;;2.80;99.90;;;;;;5055069;28;20592;-65
2022/01/14 12:02:57;;;;;;;25.65;13.90;;;2.70;99.90;;;;;;5055260;28;20264;-65
2022/01/14 12:05:28;;;;;;;29.08;14.25;;;2.70;99.90;;;;;;5055065;28;20178;-65
2022/01/14 12:08:07;;;;;;;27.67;14.65;;;2.70;99.90;;;;;;5055166;28;20161;-65
2022/01/14 12:10:34;;;;;;;26.33;13.45;;;2.70;99.90;;;;;;5055168;28;20184;-65
2022/01/14 12:13:48;;;;;;;25.17;12.60;;;2.70;99.90;;;;;;5055068;28;20219;-65
2022/01/14 12:16:24;;;;;;;22.90;13.40;;;2.60;99.90;;;;;;5054986;28;20185;-65
2022/01/14 12:19:00;;;;;;;20.92;12.18;;;2.50;99.90;;;;;;5053635;28;20220;-65
2022/01/14 12:21:39;;;;;;;20.08;12.57;;;2.30;99.90;;;;;;5053601;28;20189;-65
2022/01/14 12:24:19;;;;;;;21.13;11.93;;;2.20;99.90;;;;;;5054752;28;20581;-65
2022/01/14 12:27:12;;;;;;;23.38;12.52;;;2.20;99.90;;;;;;5053526;28;20185;-65
2022/01/14 12:29:43;;;;;;;23.17;12.50;;;2.30;99.90;;;;;;5053592;28;20186;-65
2022/01/14 12:32:47;;;;;;;20.60;12.35;;;2.30;99.90;;;;;;5054680;28;20178;-65
2022/01/14 12:35:15;;;;;;;33.70;15.32;;;2.50;99.90;;;;;;5032434;28;20174;-65
2022/01/14 12:37:48;;;;;;;23.13;13.35;;;2.60;99.90;;;;;;5050821;28;20193;-65
2022/01/14 12:40:30;;;;;;;22.88;13.05;;;2.70;99.90;;;;;;5054447;28;20217;-65
2022/01/14 12:42:58;;;;;;;23.55;13.43;;;2.80;99.90;;;;;;5054457;28;20182;-65
2022/01/14 12:45:32;;;;;;;31.17;15.05;;;2.90;99.90;;;;;;5053061;28;20186;-65
2022/01/14 12:48:18;;;;;;;24.75;14.18;;;2.90;99.90;;;;;;5053301;28;20632;-64
2022/01/14 12:50:46;;;;;;;24.02;13.55;;;2.90;99.90;;;;;;5054484;28;20272;-64
2022/01/14 12:53:18;;;;;;;25.83;14.18;;;2.90;99.90;;;;;;5054238;28;20382;-64
2022/01/14 12:55:45;;;;;;;26.80;14.05;;;2.90;99.90;;;;;;5054204;28;20220;-64